sensor_id;sensor_type;location;lat;lon;timestamp;P1;durP1;ratioP1;P2;durP2;ratioP2
59788;SDS011;47353;51.614;5.530;2023-05-29T00:01:54;10.52;;;5.38;;
59788;SDS011;47353;51.614;5.530;2023-05-29T00:04:20;14.15;;;4.95;;
59788;SDS011;47353;51.614;5.530;2023-05-29T00:06:46;12.65;;;5.07;;
59788;SDS011;47353;51.614;5.530;2023-05-29T00:09:12;13.48;;;5.18;;
59788;SDS011;47353;51.614;5.530;2023-05-29T00:11:37;14.98;;;5.20;;
59788;SDS011;47353;51.614;5.530;2023-05-29T00:14:02;15.40;;;4.97;;
59788;SDS011;47353;51.614;5.530;2023-05-29T00:16:28;11.98;;;4.43;;
59788;SDS011;47353;51.614;5.530;2023-05-29T00:18:54;14.77;;;4.90;;
59788;SDS011;47353;51.614;5.530;2023-05-29T00:21:19;11.98;;;4.75;;
59788;SDS011;47353;51.614;5.530;2023-05-29T00:23:45;10.15;;;3.95;;
59788;SDS011;47353;51.614;5.530;2023-05-29T00:26:10;13.00;;;4.20;;
59788;SDS011;47353;51.614;5.530;2023-05-29T00:28:36;14.48;;;4.50;;
59788;SDS011;47353;51.614;5.530;2023-05-29T00:31:02;14.15;;;3.88;;
59788;SDS011;47353;51.614;5.530;2023-05-29T00:33:27;13.38;;;3.83;;
59788;SDS011;47353;51.614;5.530;2023-05-29T00:35:53;10.70;;;3.53;;
59788;SDS011;47353;51.614;5.530;2023-05-29T00:38:18;12.32;;;3.90;;
59788;SDS011;47353;51.614;5.530;2023-05-29T00:40:44;13.77;;;3.97;;
59788;SDS011;47353;51.614;5.530;2023-05-29T00:43:10;13.25;;;3.72;;
59788;SDS011;47353;51.614;5.530;2023-05-29T00:45:35;15.10;;;3.88;;
59788;SDS011;47353;51.614;5.530;2023-05-29T00:48:04;15.68;;;3.97;;
59788;SDS011;47353;51.614;5.530;2023-05-29T00:50:30;15.05;;;3.78;;
59788;SDS011;47353;51.614;5.530;2023-05-29T00:52:57;10.75;;;3.25;;
59788;SDS011;47353;51.614;5.530;2023-05-29T00:55:25;16.58;;;4.25;;
59788;SDS011;47353;51.614;5.530;2023-05-29T00:57:50;12.95;;;3.35;;
59788;SDS011;47353;51.614;5.530;2023-05-29T01:00:16;12.52;;;3.50;;
59788;SDS011;47353;51.614;5.530;2023-05-29T01:02:43;15.77;;;3.63;;
59788;SDS011;47353;51.614;5.530;2023-05-29T01:05:09;12.65;;;3.58;;
59788;SDS011;47353;51.614;5.530;2023-05-29T01:07:38;10.50;;;2.90;;
59788;SDS011;47353;51.614;5.530;2023-05-29T01:10:04;13.70;;;3.42;;
59788;SDS011;47353;51.614;5.530;2023-05-29T01:12:45;10.80;;;3.10;;
59788;SDS011;47353;51.614;5.530;2023-05-29T01:15:21;13.98;;;3.10;;
59788;SDS011;47353;51.614;5.530;2023-05-29T01:20:35;12.98;;;3.55;;
59788;SDS011;47353;51.614;5.530;2023-05-29T01:23:07;13.88;;;3.47;;
59788;SDS011;47353;51.614;5.530;2023-05-29T01:28:14;16.40;;;4.03;;
59788;SDS011;47353;51.614;5.530;2023-05-29T01:30:43;13.15;;;3.03;;
59788;SDS011;47353;51.614;5.530;2023-05-29T01:33:08;18.67;;;3.80;;
59788;SDS011;47353;51.614;5.530;2023-05-29T01:35:34;11.05;;;3.20;;
59788;SDS011;47353;51.614;5.530;2023-05-29T01:38:00;13.98;;;3.58;;
59788;SDS011;47353;51.614;5.530;2023-05-29T01:40:26;10.45;;;3.35;;
59788;SDS011;47353;51.614;5.530;2023-05-29T01:42:51;15.90;;;3.22;;
59788;SDS011;47353;51.614;5.530;2023-05-29T01:45:17;14.82;;;3.45;;
59788;SDS011;47353;51.614;5.530;2023-05-29T01:47:43;12.38;;;3.13;;
59788;SDS011;47353;51.614;5.530;2023-05-29T01:50:08;13.02;;;3.15;;
59788;SDS011;47353;51.614;5.530;2023-05-29T01:52:35;16.58;;;3.45;;
59788;SDS011;47353;51.614;5.530;2023-05-29T01:55:01;15.50;;;3.33;;
59788;SDS011;47353;51.614;5.530;2023-05-29T01:57:26;16.35;;;2.92;;
59788;SDS011;47353;51.614;5.530;2023-05-29T01:59:52;12.10;;;3.15;;
59788;SDS011;47353;51.614;5.530;2023-05-29T02:02:21;15.23;;;3.47;;
59788;SDS011;47353;51.614;5.530;2023-05-29T02:04:48;14.98;;;3.40;;
59788;SDS011;47353;51.614;5.530;2023-05-29T02:07:13;14.88;;;3.22;;
59788;SDS011;47353;51.614;5.530;2023-05-29T02:09:40;18.42;;;3.08;;
59788;SDS011;47353;51.614;5.530;2023-05-29T02:12:06;14.65;;;3.20;;
59788;SDS011;47353;51.614;5.530;2023-05-29T02:14:32;14.52;;;3.00;;
59788;SDS011;47353;51.614;5.530;2023-05-29T02:16:58;15.32;;;3.17;;
59788;SDS011;47353;51.614;5.530;2023-05-29T02:19:23;13.18;;;2.83;;
59788;SDS011;47353;51.614;5.530;2023-05-29T02:21:50;11.68;;;3.08;;
59788;SDS011;47353;51.614;5.530;2023-05-29T02:24:15;12.20;;;3.28;;
59788;SDS011;47353;51.614;5.530;2023-05-29T02:26:41;18.13;;;3.47;;
59788;SDS011;47353;51.614;5.530;2023-05-29T02:29:07;13.68;;;3.13;;
59788;SDS011;47353;51.614;5.530;2023-05-29T02:31:32;12.98;;;2.75;;
59788;SDS011;47353;51.614;5.530;2023-05-29T02:33:58;18.40;;;3.50;;
59788;SDS011;47353;51.614;5.530;2023-05-29T02:36:24;13.55;;;3.22;;
59788;SDS011;47353;51.614;5.530;2023-05-29T02:38:49;17.00;;;3.42;;
59788;SDS011;47353;51.614;5.530;2023-05-29T02:41:15;14.25;;;3.22;;
59788;SDS011;47353;51.614;5.530;2023-05-29T02:43:40;16.02;;;3.10;;
59788;SDS011;47353;51.614;5.530;2023-05-29T02:46:05;7.90;;;2.42;;
59788;SDS011;47353;51.614;5.530;2023-05-29T02:48:31;14.45;;;3.30;;
59788;SDS011;47353;51.614;5.530;2023-05-29T02:50:56;17.65;;;3.20;;
59788;SDS011;47353;51.614;5.530;2023-05-29T02:53:21;15.40;;;3.30;;
59788;SDS011;47353;51.614;5.530;2023-05-29T02:55:47;15.63;;;2.80;;
59788;SDS011;47353;51.614;5.530;2023-05-29T02:58:13;14.55;;;3.17;;
59788;SDS011;47353;51.614;5.530;2023-05-29T03:00:41;15.43;;;3.00;;
59788;SDS011;47353;51.614;5.530;2023-05-29T03:03:06;14.68;;;3.08;;
59788;SDS011;47353;51.614;5.530;2023-05-29T03:05:35;16.73;;;3.08;;
59788;SDS011;47353;51.614;5.530;2023-05-29T03:08:00;18.23;;;3.15;;
59788;SDS011;47353;51.614;5.530;2023-05-29T03:10:25;14.63;;;2.88;;
59788;SDS011;47353;51.614;5.530;2023-05-29T03:12:51;13.82;;;3.10;;
59788;SDS011;47353;51.614;5.530;2023-05-29T03:15:16;13.02;;;3.17;;
59788;SDS011;47353;51.614;5.530;2023-05-29T03:17:45;17.45;;;3.38;;
59788;SDS011;47353;51.614;5.530;2023-05-29T03:20:11;11.95;;;2.90;;
59788;SDS011;47353;51.614;5.530;2023-05-29T03:22:36;14.68;;;2.83;;
59788;SDS011;47353;51.614;5.530;2023-05-29T03:25:02;13.55;;;3.45;;
59788;SDS011;47353;51.614;5.530;2023-05-29T03:27:29;22.42;;;3.40;;
59788;SDS011;47353;51.614;5.530;2023-05-29T03:29:55;14.82;;;3.10;;
59788;SDS011;47353;51.614;5.530;2023-05-29T03:32:21;13.05;;;3.08;;
59788;SDS011;47353;51.614;5.530;2023-05-29T03:34:46;16.85;;;3.40;;
59788;SDS011;47353;51.614;5.530;2023-05-29T03:37:12;15.20;;;2.95;;
59788;SDS011;47353;51.614;5.530;2023-05-29T03:39:38;17.00;;;3.45;;
59788;SDS011;47353;51.614;5.530;2023-05-29T03:42:03;17.40;;;3.33;;
59788;SDS011;47353;51.614;5.530;2023-05-29T03:44:29;15.93;;;3.35;;
59788;SDS011;47353;51.614;5.530;2023-05-29T03:46:54;20.75;;;3.22;;
59788;SDS011;47353;51.614;5.530;2023-05-29T03:49:20;14.38;;;3.58;;
59788;SDS011;47353;51.614;5.530;2023-05-29T03:51:45;17.85;;;3.85;;
59788;SDS011;47353;51.614;5.530;2023-05-29T03:54:11;18.33;;;3.80;;
59788;SDS011;47353;51.614;5.530;2023-05-29T03:56:36;15.23;;;3.25;;
59788;SDS011;47353;51.614;5.530;2023-05-29T03:59:02;17.35;;;3.33;;
59788;SDS011;47353;51.614;5.530;2023-05-29T04:01:27;17.98;;;3.50;;
59788;SDS011;47353;51.614;5.530;2023-05-29T04:03:53;17.33;;;3.63;;
59788;SDS011;47353;51.614;5.530;2023-05-29T04:06:18;17.63;;;3.33;;
59788;SDS011;47353;51.614;5.530;2023-05-29T04:08:44;13.60;;;3.50;;
59788;SDS011;47353;51.614;5.530;2023-05-29T04:11:09;14.73;;;3.22;;
59788;SDS011;47353;51.614;5.530;2023-05-29T04:13:37;12.93;;;3.50;;
59788;SDS011;47353;51.614;5.530;2023-05-29T04:16:02;14.02;;;3.45;;
59788;SDS011;47353;51.614;5.530;2023-05-29T04:18:28;15.20;;;3.30;;
59788;SDS011;47353;51.614;5.530;2023-05-29T04:20:53;17.58;;;3.47;;
59788;SDS011;47353;51.614;5.530;2023-05-29T04:23:19;17.30;;;3.60;;
59788;SDS011;47353;51.614;5.530;2023-05-29T04:25:45;22.88;;;3.50;;
59788;SDS011;47353;51.614;5.530;2023-05-29T04:28:10;15.70;;;3.30;;
59788;SDS011;47353;51.614;5.530;2023-05-29T04:30:36;15.52;;;3.30;;
59788;SDS011;47353;51.614;5.530;2023-05-29T04:33:04;16.38;;;3.40;;
59788;SDS011;47353;51.614;5.530;2023-05-29T04:35:29;12.13;;;3.15;;
59788;SDS011;47353;51.614;5.530;2023-05-29T04:37:55;14.52;;;3.33;;
59788;SDS011;47353;51.614;5.530;2023-05-29T04:40:21;20.40;;;3.83;;
59788;SDS011;47353;51.614;5.530;2023-05-29T04:42:47;16.50;;;3.45;;
59788;SDS011;47353;51.614;5.530;2023-05-29T04:45:12;14.85;;;3.35;;
59788;SDS011;47353;51.614;5.530;2023-05-29T04:47:38;15.88;;;3.40;;
59788;SDS011;47353;51.614;5.530;2023-05-29T04:50:11;22.15;;;3.90;;
59788;SDS011;47353;51.614;5.530;2023-05-29T04:52:37;15.25;;;3.15;;
59788;SDS011;47353;51.614;5.530;2023-05-29T04:55:03;15.85;;;3.45;;
59788;SDS011;47353;51.614;5.530;2023-05-29T04:57:29;18.88;;;3.40;;
59788;SDS011;47353;51.614;5.530;2023-05-29T04:59:54;16.55;;;3.67;;
59788;SDS011;47353;51.614;5.530;2023-05-29T05:02:20;20.50;;;3.50;;
59788;SDS011;47353;51.614;5.530;2023-05-29T05:04:45;17.40;;;3.40;;
59788;SDS011;47353;51.614;5.530;2023-05-29T05:07:11;14.70;;;3.30;;
59788;SDS011;47353;51.614;5.530;2023-05-29T05:09:36;18.30;;;3.50;;
59788;SDS011;47353;51.614;5.530;2023-05-29T05:12:02;20.20;;;3.22;;
59788;SDS011;47353;51.614;5.530;2023-05-29T05:14:28;16.42;;;3.28;;
59788;SDS011;47353;51.614;5.530;2023-05-29T05:16:53;12.93;;;3.38;;
59788;SDS011;47353;51.614;5.530;2023-05-29T05:19:19;16.75;;;3.15;;
59788;SDS011;47353;51.614;5.530;2023-05-29T05:21:44;19.65;;;3.58;;
59788;SDS011;47353;51.614;5.530;2023-05-29T05:24:10;13.95;;;3.28;;
59788;SDS011;47353;51.614;5.530;2023-05-29T05:26:35;14.90;;;3.40;;
59788;SDS011;47353;51.614;5.530;2023-05-29T05:29:00;17.10;;;2.90;;
59788;SDS011;47353;51.614;5.530;2023-05-29T05:31:26;15.35;;;3.30;;
59788;SDS011;47353;51.614;5.530;2023-05-29T05:33:51;17.50;;;3.28;;
59788;SDS011;47353;51.614;5.530;2023-05-29T05:36:17;17.27;;;3.08;;
59788;SDS011;47353;51.614;5.530;2023-05-29T05:38:43;17.52;;;2.78;;
59788;SDS011;47353;51.614;5.530;2023-05-29T05:41:08;15.82;;;3.38;;
59788;SDS011;47353;51.614;5.530;2023-05-29T05:43:35;20.83;;;3.20;;
59788;SDS011;47353;51.614;5.530;2023-05-29T05:46:00;17.02;;;3.63;;
59788;SDS011;47353;51.614;5.530;2023-05-29T05:48:26;14.73;;;2.83;;
59788;SDS011;47353;51.614;5.530;2023-05-29T05:50:51;16.20;;;2.80;;
59788;SDS011;47353;51.614;5.530;2023-05-29T05:53:16;16.52;;;3.03;;
59788;SDS011;47353;51.614;5.530;2023-05-29T05:55:42;19.83;;;3.42;;
59788;SDS011;47353;51.614;5.530;2023-05-29T05:58:08;16.33;;;3.30;;
59788;SDS011;47353;51.614;5.530;2023-05-29T06:00:33;13.48;;;3.28;;
59788;SDS011;47353;51.614;5.530;2023-05-29T06:02:59;17.23;;;3.33;;
59788;SDS011;47353;51.614;5.530;2023-05-29T06:05:25;20.10;;;3.40;;
59788;SDS011;47353;51.614;5.530;2023-05-29T06:07:51;17.30;;;3.10;;
59788;SDS011;47353;51.614;5.530;2023-05-29T06:10:16;15.85;;;3.03;;
59788;SDS011;47353;51.614;5.530;2023-05-29T06:12:42;13.07;;;2.67;;
59788;SDS011;47353;51.614;5.530;2023-05-29T06:15:07;13.38;;;2.72;;
59788;SDS011;47353;51.614;5.530;2023-05-29T06:17:33;19.58;;;3.40;;
59788;SDS011;47353;51.614;5.530;2023-05-29T06:19:59;16.23;;;2.92;;
59788;SDS011;47353;51.614;5.530;2023-05-29T06:22:25;17.42;;;3.00;;
59788;SDS011;47353;51.614;5.530;2023-05-29T06:24:50;16.92;;;3.00;;
59788;SDS011;47353;51.614;5.530;2023-05-29T06:27:16;18.00;;;3.42;;
59788;SDS011;47353;51.614;5.530;2023-05-29T06:29:42;13.55;;;3.00;;
59788;SDS011;47353;51.614;5.530;2023-05-29T06:32:08;15.48;;;3.25;;
59788;SDS011;47353;51.614;5.530;2023-05-29T06:34:33;18.55;;;3.03;;
59788;SDS011;47353;51.614;5.530;2023-05-29T06:36:59;13.43;;;2.65;;
59788;SDS011;47353;51.614;5.530;2023-05-29T06:39:24;11.57;;;2.28;;
59788;SDS011;47353;51.614;5.530;2023-05-29T06:41:50;12.00;;;2.88;;
59788;SDS011;47353;51.614;5.530;2023-05-29T06:44:15;12.88;;;2.63;;
59788;SDS011;47353;51.614;5.530;2023-05-29T06:46:40;13.45;;;2.45;;
59788;SDS011;47353;51.614;5.530;2023-05-29T06:49:06;12.77;;;2.90;;
59788;SDS011;47353;51.614;5.530;2023-05-29T06:51:32;11.15;;;2.75;;
59788;SDS011;47353;51.614;5.530;2023-05-29T06:53:58;11.95;;;2.35;;
59788;SDS011;47353;51.614;5.530;2023-05-29T06:56:24;12.27;;;2.55;;
59788;SDS011;47353;51.614;5.530;2023-05-29T06:58:51;17.52;;;2.42;;
59788;SDS011;47353;51.614;5.530;2023-05-29T07:01:16;15.05;;;2.50;;
59788;SDS011;47353;51.614;5.530;2023-05-29T07:03:42;14.93;;;2.95;;
59788;SDS011;47353;51.614;5.530;2023-05-29T07:06:07;11.65;;;2.55;;
59788;SDS011;47353;51.614;5.530;2023-05-29T07:08:33;14.93;;;2.75;;
59788;SDS011;47353;51.614;5.530;2023-05-29T07:10:58;16.17;;;3.30;;
59788;SDS011;47353;51.614;5.530;2023-05-29T07:13:24;11.50;;;2.40;;
59788;SDS011;47353;51.614;5.530;2023-05-29T07:15:51;10.52;;;2.40;;
59788;SDS011;47353;51.614;5.530;2023-05-29T07:18:16;13.73;;;2.80;;
59788;SDS011;47353;51.614;5.530;2023-05-29T07:20:42;12.75;;;2.28;;
59788;SDS011;47353;51.614;5.530;2023-05-29T07:23:07;11.15;;;2.30;;
59788;SDS011;47353;51.614;5.530;2023-05-29T07:25:32;13.20;;;2.65;;
59788;SDS011;47353;51.614;5.530;2023-05-29T07:27:58;9.40;;;2.17;;
59788;SDS011;47353;51.614;5.530;2023-05-29T07:30:23;14.13;;;2.72;;
59788;SDS011;47353;51.614;5.530;2023-05-29T07:32:49;11.05;;;2.08;;
59788;SDS011;47353;51.614;5.530;2023-05-29T07:35:14;13.30;;;2.60;;
59788;SDS011;47353;51.614;5.530;2023-05-29T07:37:40;9.57;;;2.60;;
59788;SDS011;47353;51.614;5.530;2023-05-29T07:40:05;10.95;;;2.38;;
59788;SDS011;47353;51.614;5.530;2023-05-29T07:42:31;11.05;;;2.28;;
59788;SDS011;47353;51.614;5.530;2023-05-29T07:44:57;12.48;;;2.20;;
59788;SDS011;47353;51.614;5.530;2023-05-29T07:47:23;12.13;;;2.20;;
59788;SDS011;47353;51.614;5.530;2023-05-29T07:49:49;9.48;;;2.05;;
59788;SDS011;47353;51.614;5.530;2023-05-29T07:52:15;7.32;;;1.92;;
59788;SDS011;47353;51.614;5.530;2023-05-29T07:54:40;12.45;;;2.38;;
59788;SDS011;47353;51.614;5.530;2023-05-29T07:57:06;10.38;;;2.42;;
59788;SDS011;47353;51.614;5.530;2023-05-29T07:59:35;9.60;;;2.50;;
59788;SDS011;47353;51.614;5.530;2023-05-29T08:02:06;10.40;;;2.17;;
59788;SDS011;47353;51.614;5.530;2023-05-29T08:04:32;10.93;;;2.30;;
59788;SDS011;47353;51.614;5.530;2023-05-29T08:06:58;13.40;;;2.15;;
59788;SDS011;47353;51.614;5.530;2023-05-29T08:09:26;14.32;;;2.08;;
59788;SDS011;47353;51.614;5.530;2023-05-29T08:11:52;14.75;;;2.20;;
59788;SDS011;47353;51.614;5.530;2023-05-29T08:14:18;6.63;;;1.90;;
59788;SDS011;47353;51.614;5.530;2023-05-29T08:16:43;10.80;;;2.25;;
59788;SDS011;47353;51.614;5.530;2023-05-29T08:19:08;7.60;;;2.25;;
59788;SDS011;47353;51.614;5.530;2023-05-29T08:21:34;7.85;;;2.25;;
59788;SDS011;47353;51.614;5.530;2023-05-29T08:24:01;6.47;;;1.92;;
59788;SDS011;47353;51.614;5.530;2023-05-29T08:26:27;10.20;;;2.15;;
59788;SDS011;47353;51.614;5.530;2023-05-29T08:28:52;7.75;;;2.10;;
59788;SDS011;47353;51.614;5.530;2023-05-29T08:31:18;7.22;;;2.20;;
59788;SDS011;47353;51.614;5.530;2023-05-29T08:33:43;8.07;;;2.38;;
59788;SDS011;47353;51.614;5.530;2023-05-29T08:36:09;5.60;;;1.80;;
59788;SDS011;47353;51.614;5.530;2023-05-29T08:38:35;6.55;;;2.30;;
59788;SDS011;47353;51.614;5.530;2023-05-29T08:41:01;8.15;;;2.33;;
59788;SDS011;47353;51.614;5.530;2023-05-29T08:43:30;8.70;;;2.25;;
59788;SDS011;47353;51.614;5.530;2023-05-29T08:45:58;9.27;;;1.90;;
59788;SDS011;47353;51.614;5.530;2023-05-29T08:48:25;8.65;;;1.85;;
59788;SDS011;47353;51.614;5.530;2023-05-29T08:50:53;7.35;;;2.10;;
59788;SDS011;47353;51.614;5.530;2023-05-29T08:53:20;9.18;;;2.50;;
59788;SDS011;47353;51.614;5.530;2023-05-29T08:55:47;9.45;;;2.08;;
59788;SDS011;47353;51.614;5.530;2023-05-29T08:58:16;9.48;;;2.17;;
59788;SDS011;47353;51.614;5.530;2023-05-29T09:00:43;9.70;;;2.30;;
59788;SDS011;47353;51.614;5.530;2023-05-29T09:03:10;6.18;;;1.92;;
59788;SDS011;47353;51.614;5.530;2023-05-29T09:05:36;7.20;;;2.20;;
59788;SDS011;47353;51.614;5.530;2023-05-29T09:08:05;8.85;;;2.20;;
59788;SDS011;47353;51.614;5.530;2023-05-29T09:10:32;6.93;;;1.90;;
59788;SDS011;47353;51.614;5.530;2023-05-29T09:12:58;6.90;;;2.13;;
59788;SDS011;47353;51.614;5.530;2023-05-29T09:15:24;6.65;;;2.05;;
59788;SDS011;47353;51.614;5.530;2023-05-29T09:17:50;10.05;;;2.08;;
59788;SDS011;47353;51.614;5.530;2023-05-29T09:20:19;6.20;;;2.00;;
59788;SDS011;47353;51.614;5.530;2023-05-29T09:22:55;9.38;;;2.17;;
59788;SDS011;47353;51.614;5.530;2023-05-29T09:25:26;9.10;;;2.00;;
59788;SDS011;47353;51.614;5.530;2023-05-29T09:28:05;9.65;;;2.25;;
59788;SDS011;47353;51.614;5.530;2023-05-29T09:30:45;10.02;;;2.53;;
59788;SDS011;47353;51.614;5.530;2023-05-29T09:33:13;8.23;;;1.90;;
59788;SDS011;47353;51.614;5.530;2023-05-29T09:35:40;6.68;;;1.65;;
59788;SDS011;47353;51.614;5.530;2023-05-29T09:38:07;5.00;;;2.20;;
59788;SDS011;47353;51.614;5.530;2023-05-29T09:40:42;8.05;;;2.08;;
59788;SDS011;47353;51.614;5.530;2023-05-29T09:43:11;9.02;;;2.50;;
59788;SDS011;47353;51.614;5.530;2023-05-29T09:45:43;6.90;;;2.30;;
59788;SDS011;47353;51.614;5.530;2023-05-29T09:48:13;9.20;;;2.30;;
59788;SDS011;47353;51.614;5.530;2023-05-29T09:50:40;6.72;;;1.85;;
59788;SDS011;47353;51.614;5.530;2023-05-29T09:53:22;8.98;;;2.05;;
59788;SDS011;47353;51.614;5.530;2023-05-29T09:55:52;6.15;;;2.00;;
59788;SDS011;47353;51.614;5.530;2023-05-29T09:58:20;8.30;;;2.03;;
59788;SDS011;47353;51.614;5.530;2023-05-29T10:00:46;8.90;;;2.22;;
59788;SDS011;47353;51.614;5.530;2023-05-29T10:03:16;7.75;;;2.05;;
59788;SDS011;47353;51.614;5.530;2023-05-29T10:05:47;6.40;;;2.00;;
59788;SDS011;47353;51.614;5.530;2023-05-29T10:08:17;6.60;;;2.10;;
59788;SDS011;47353;51.614;5.530;2023-05-29T10:10:45;8.07;;;2.15;;
59788;SDS011;47353;51.614;5.530;2023-05-29T10:13:13;6.50;;;2.10;;
59788;SDS011;47353;51.614;5.530;2023-05-29T10:15:41;7.47;;;2.15;;
59788;SDS011;47353;51.614;5.530;2023-05-29T10:18:16;6.43;;;1.90;;
59788;SDS011;47353;51.614;5.530;2023-05-29T10:20:51;6.15;;;2.05;;
59788;SDS011;47353;51.614;5.530;2023-05-29T10:23:21;6.68;;;2.03;;
59788;SDS011;47353;51.614;5.530;2023-05-29T10:25:49;6.43;;;1.95;;
59788;SDS011;47353;51.614;5.530;2023-05-29T10:28:17;9.88;;;2.20;;
59788;SDS011;47353;51.614;5.530;2023-05-29T10:30:45;8.90;;;2.30;;
59788;SDS011;47353;51.614;5.530;2023-05-29T10:35:52;8.73;;;2.20;;
59788;SDS011;47353;51.614;5.530;2023-05-29T10:38:23;6.85;;;2.20;;
59788;SDS011;47353;51.614;5.530;2023-05-29T10:40:49;5.78;;;2.00;;
59788;SDS011;47353;51.614;5.530;2023-05-29T10:43:33;6.65;;;2.05;;
59788;SDS011;47353;51.614;5.530;2023-05-29T10:46:00;8.70;;;2.42;;
59788;SDS011;47353;51.614;5.530;2023-05-29T10:50:56;7.93;;;1.98;;
59788;SDS011;47353;51.614;5.530;2023-05-29T10:53:25;8.40;;;2.50;;
59788;SDS011;47353;51.614;5.530;2023-05-29T10:55:55;7.40;;;2.10;;
59788;SDS011;47353;51.614;5.530;2023-05-29T10:58:22;7.30;;;2.40;;
59788;SDS011;47353;51.614;5.530;2023-05-29T11:00:49;6.30;;;2.10;;
59788;SDS011;47353;51.614;5.530;2023-05-29T11:03:15;8.63;;;2.25;;
59788;SDS011;47353;51.614;5.530;2023-05-29T11:05:59;7.50;;;2.40;;
59788;SDS011;47353;51.614;5.530;2023-05-29T11:08:33;6.25;;;2.20;;
59788;SDS011;47353;51.614;5.530;2023-05-29T11:11:03;7.47;;;2.10;;
59788;SDS011;47353;51.614;5.530;2023-05-29T11:13:34;6.35;;;2.15;;
59788;SDS011;47353;51.614;5.530;2023-05-29T11:16:04;8.65;;;2.38;;
59788;SDS011;47353;51.614;5.530;2023-05-29T11:18:43;6.65;;;2.30;;
59788;SDS011;47353;51.614;5.530;2023-05-29T11:24:00;7.28;;;2.00;;
59788;SDS011;47353;51.614;5.530;2023-05-29T11:26:28;7.60;;;2.42;;
59788;SDS011;47353;51.614;5.530;2023-05-29T11:29:02;9.07;;;2.60;;
59788;SDS011;47353;51.614;5.530;2023-05-29T11:31:31;8.77;;;2.45;;
59788;SDS011;47353;51.614;5.530;2023-05-29T11:33:59;7.43;;;2.20;;
59788;SDS011;47353;51.614;5.530;2023-05-29T11:36:26;6.10;;;2.00;;
59788;SDS011;47353;51.614;5.530;2023-05-29T11:38:53;7.13;;;2.25;;
59788;SDS011;47353;51.614;5.530;2023-05-29T11:41:18;6.70;;;2.17;;
59788;SDS011;47353;51.614;5.530;2023-05-29T11:43:44;7.13;;;2.05;;
59788;SDS011;47353;51.614;5.530;2023-05-29T11:46:19;7.13;;;2.13;;
59788;SDS011;47353;51.614;5.530;2023-05-29T11:48:47;5.72;;;1.77;;
59788;SDS011;47353;51.614;5.530;2023-05-29T11:51:13;6.53;;;2.00;;
59788;SDS011;47353;51.614;5.530;2023-05-29T11:53:42;6.10;;;1.90;;
59788;SDS011;47353;51.614;5.530;2023-05-29T11:56:08;4.78;;;2.17;;
59788;SDS011;47353;51.614;5.530;2023-05-29T11:58:39;6.50;;;2.10;;
59788;SDS011;47353;51.614;5.530;2023-05-29T12:01:05;4.53;;;2.10;;
59788;SDS011;47353;51.614;5.530;2023-05-29T12:03:41;10.55;;;2.03;;
59788;SDS011;47353;51.614;5.530;2023-05-29T12:06:08;9.77;;;2.38;;
59788;SDS011;47353;51.614;5.530;2023-05-29T12:08:35;7.40;;;2.13;;
59788;SDS011;47353;51.614;5.530;2023-05-29T12:11:02;5.60;;;2.28;;
59788;SDS011;47353;51.614;5.530;2023-05-29T12:13:27;7.78;;;2.42;;
59788;SDS011;47353;51.614;5.530;2023-05-29T12:15:55;6.13;;;2.30;;
59788;SDS011;47353;51.614;5.530;2023-05-29T12:18:23;7.72;;;2.78;;
59788;SDS011;47353;51.614;5.530;2023-05-29T12:20:49;5.40;;;1.95;;
59788;SDS011;47353;51.614;5.530;2023-05-29T12:23:16;7.50;;;2.40;;
59788;SDS011;47353;51.614;5.530;2023-05-29T12:25:45;10.13;;;1.95;;
59788;SDS011;47353;51.614;5.530;2023-05-29T12:28:15;7.35;;;2.13;;
59788;SDS011;47353;51.614;5.530;2023-05-29T12:30:44;7.97;;;2.80;;
59788;SDS011;47353;51.614;5.530;2023-05-29T12:33:29;8.10;;;2.10;;
59788;SDS011;47353;51.614;5.530;2023-05-29T12:36:08;8.82;;;2.38;;
59788;SDS011;47353;51.614;5.530;2023-05-29T12:38:48;6.75;;;2.03;;
59788;SDS011;47353;51.614;5.530;2023-05-29T12:41:28;7.43;;;2.40;;
59788;SDS011;47353;51.614;5.530;2023-05-29T12:43:55;6.82;;;2.03;;
59788;SDS011;47353;51.614;5.530;2023-05-29T12:46:22;6.13;;;2.10;;
59788;SDS011;47353;51.614;5.530;2023-05-29T12:48:48;7.43;;;2.30;;
59788;SDS011;47353;51.614;5.530;2023-05-29T12:51:14;6.20;;;2.30;;
59788;SDS011;47353;51.614;5.530;2023-05-29T12:53:42;5.63;;;2.20;;
59788;SDS011;47353;51.614;5.530;2023-05-29T12:56:08;10.45;;;2.08;;
59788;SDS011;47353;51.614;5.530;2023-05-29T12:58:33;8.32;;;2.05;;
59788;SDS011;47353;51.614;5.530;2023-05-29T13:00:59;8.18;;;2.20;;
59788;SDS011;47353;51.614;5.530;2023-05-29T13:03:24;9.15;;;2.03;;
59788;SDS011;47353;51.614;5.530;2023-05-29T13:05:50;7.25;;;2.63;;
59788;SDS011;47353;51.614;5.530;2023-05-29T13:08:16;7.55;;;2.63;;
59788;SDS011;47353;51.614;5.530;2023-05-29T13:10:42;8.70;;;2.58;;
59788;SDS011;47353;51.614;5.530;2023-05-29T13:13:09;6.53;;;2.08;;
59788;SDS011;47353;51.614;5.530;2023-05-29T13:15:35;5.50;;;2.22;;
59788;SDS011;47353;51.614;5.530;2023-05-29T13:18:00;6.60;;;2.08;;
59788;SDS011;47353;51.614;5.530;2023-05-29T13:20:26;8.90;;;2.30;;
59788;SDS011;47353;51.614;5.530;2023-05-29T13:22:51;7.15;;;2.22;;
59788;SDS011;47353;51.614;5.530;2023-05-29T13:25:19;8.63;;;2.42;;
59788;SDS011;47353;51.614;5.530;2023-05-29T13:27:46;6.78;;;2.40;;
59788;SDS011;47353;51.614;5.530;2023-05-29T13:30:14;7.05;;;2.47;;
59788;SDS011;47353;51.614;5.530;2023-05-29T13:32:40;7.32;;;2.35;;
59788;SDS011;47353;51.614;5.530;2023-05-29T13:35:06;7.90;;;2.30;;
59788;SDS011;47353;51.614;5.530;2023-05-29T13:37:32;8.38;;;2.28;;
59788;SDS011;47353;51.614;5.530;2023-05-29T13:39:57;9.23;;;2.30;;
59788;SDS011;47353;51.614;5.530;2023-05-29T13:42:23;8.90;;;2.50;;
59788;SDS011;47353;51.614;5.530;2023-05-29T13:44:48;8.02;;;2.30;;
59788;SDS011;47353;51.614;5.530;2023-05-29T13:47:14;7.00;;;2.58;;
59788;SDS011;47353;51.614;5.530;2023-05-29T13:49:40;7.35;;;2.28;;
59788;SDS011;47353;51.614;5.530;2023-05-29T13:52:06;9.35;;;2.60;;
59788;SDS011;47353;51.614;5.530;2023-05-29T13:54:31;9.25;;;2.53;;
59788;SDS011;47353;51.614;5.530;2023-05-29T13:57:01;9.48;;;2.25;;
59788;SDS011;47353;51.614;5.530;2023-05-29T13:59:30;6.93;;;2.47;;
59788;SDS011;47353;51.614;5.530;2023-05-29T14:01:56;7.25;;;2.45;;
59788;SDS011;47353;51.614;5.530;2023-05-29T14:04:21;7.30;;;2.75;;
59788;SDS011;47353;51.614;5.530;2023-05-29T14:06:47;12.65;;;3.00;;
59788;SDS011;47353;51.614;5.530;2023-05-29T14:09:12;8.43;;;2.70;;
59788;SDS011;47353;51.614;5.530;2023-05-29T14:11:38;8.80;;;2.53;;
59788;SDS011;47353;51.614;5.530;2023-05-29T14:14:04;7.07;;;2.35;;
59788;SDS011;47353;51.614;5.530;2023-05-29T14:16:30;11.90;;;2.78;;
59788;SDS011;47353;51.614;5.530;2023-05-29T14:18:56;10.15;;;2.75;;
59788;SDS011;47353;51.614;5.530;2023-05-29T14:21:22;7.85;;;2.55;;
59788;SDS011;47353;51.614;5.530;2023-05-29T14:23:47;6.90;;;2.70;;
59788;SDS011;47353;51.614;5.530;2023-05-29T14:26:12;8.60;;;2.70;;
59788;SDS011;47353;51.614;5.530;2023-05-29T14:28:38;7.55;;;2.55;;
59788;SDS011;47353;51.614;5.530;2023-05-29T14:31:10;7.35;;;2.70;;
59788;SDS011;47353;51.614;5.530;2023-05-29T14:33:36;8.45;;;2.72;;
59788;SDS011;47353;51.614;5.530;2023-05-29T14:36:04;7.25;;;2.58;;
59788;SDS011;47353;51.614;5.530;2023-05-29T14:38:29;10.80;;;2.75;;
59788;SDS011;47353;51.614;5.530;2023-05-29T14:40:55;9.00;;;2.60;;
59788;SDS011;47353;51.614;5.530;2023-05-29T14:43:20;7.60;;;2.60;;
59788;SDS011;47353;51.614;5.530;2023-05-29T14:45:46;7.50;;;2.63;;
59788;SDS011;47353;51.614;5.530;2023-05-29T14:48:11;8.20;;;2.50;;
59788;SDS011;47353;51.614;5.530;2023-05-29T14:50:37;8.52;;;2.78;;
59788;SDS011;47353;51.614;5.530;2023-05-29T14:53:02;8.27;;;2.90;;